createdAt,value
2022-09-12T00:01:23.480Z,15.13
2022-09-12T00:03:58.361Z,13.95
2022-09-12T00:06:36.933Z,15.30
2022-09-12T00:09:10.778Z,15.73
2022-09-12T00:11:42.649Z,14.32
2022-09-12T00:14:11.528Z,15.35
2022-09-12T00:16:39.423Z,15.57
2022-09-12T00:19:06.821Z,16.27
2022-09-12T00:21:35.205Z,15.13
2022-09-12T00:24:01.806Z,14.68
2022-09-12T00:26:28.520Z,14.30
2022-09-12T00:28:55.183Z,17.75
2022-09-12T00:31:26.539Z,17.88
2022-09-12T00:33:55.711Z,15.60
2022-09-12T00:36:24.242Z,18.08
2022-09-12T00:38:51.261Z,17.13
2022-09-12T00:41:21.832Z,16.02
2022-09-12T00:46:21.864Z,15.55
2022-09-12T00:48:54.251Z,16.80
2022-09-12T00:51:20.912Z,15.68
2022-09-12T00:53:49.936Z,14.75
2022-09-12T00:56:19.125Z,14.18
2022-09-12T00:58:57.880Z,13.88
2022-09-12T01:01:25.956Z,14.95
2022-09-12T01:03:54.786Z,15.15
2022-09-12T01:06:33.058Z,14.95
2022-09-12T01:09:03.404Z,16.63
2022-09-12T01:11:32.271Z,16.08
2022-09-12T01:13:59.853Z,15.32
2022-09-12T01:16:26.441Z,16.15
2022-09-12T01:19:25.558Z,15.55
2022-09-12T01:22:29.735Z,14.98
2022-09-12T01:25:38.231Z,13.55
2022-09-12T01:28:31.913Z,13.93
2022-09-12T01:31:08.014Z,14.45
2022-09-12T01:33:47.759Z,15.18
2022-09-12T01:36:39.225Z,15.05
2022-09-12T01:39:27.126Z,14.35
2022-09-12T01:42:06.453Z,14.23
2022-09-12T01:45:04.398Z,15.75
2022-09-12T01:47:41.205Z,14.15
2022-09-12T01:50:18.957Z,14.35
2022-09-12T01:52:54.053Z,13.55
2022-09-12T01:55:44.169Z,13.35
2022-09-12T01:58:29.305Z,12.23
2022-09-12T02:01:15.039Z,12.88
2022-09-12T02:03:45.057Z,13.15
2022-09-12T02:06:41.754Z,12.77
2022-09-12T02:09:18.520Z,12.73
2022-09-12T02:11:47.266Z,12.75
2022-09-12T02:14:32.600Z,13.05
2022-09-12T02:17:06.030Z,13.00
2022-09-12T02:19:40.783Z,12.68
2022-09-12T02:22:14.781Z,12.80
2022-09-12T02:24:47.301Z,13.43
2022-09-12T02:27:23.755Z,14.57
2022-09-12T02:29:50.907Z,16.55
2022-09-12T02:32:38.209Z,15.32
2022-09-12T02:35:26.328Z,14.18
2022-09-12T02:38:14.838Z,15.05
2022-09-12T02:40:41.728Z,14.10
2022-09-12T02:43:08.231Z,14.25
2022-09-12T02:45:36.631Z,14.55
2022-09-12T02:48:10.456Z,14.15
2022-09-12T02:50:38.665Z,13.35
2022-09-12T02:53:08.247Z,13.18
2022-09-12T02:55:37.027Z,13.40
2022-09-12T02:58:06.949Z,13.15
2022-09-12T03:00:39.909Z,15.10
2022-09-12T03:03:43.547Z,15.43
2022-09-12T03:06:25.014Z,14.95
2022-09-12T03:09:01.418Z,14.43
2022-09-12T03:11:54.054Z,14.80
2022-09-12T03:15:01.769Z,14.68
2022-09-12T03:18:09.606Z,14.02
2022-09-12T03:20:53.972Z,13.88
2022-09-12T03:23:31.142Z,12.75
2022-09-12T03:26:04.473Z,13.35
2022-09-12T03:28:33.482Z,13.07
2022-09-12T03:31:00.218Z,13.43
2022-09-12T03:33:26.949Z,13.05
2022-09-12T03:35:55.247Z,12.43
2022-09-12T03:38:21.737Z,13.55
2022-09-12T03:40:52.686Z,13.48
2022-09-12T03:43:21.290Z,13.60
2022-09-12T03:45:52.399Z,14.13
2022-09-12T03:48:19.024Z,13.50
2022-09-12T03:50:45.700Z,13.98
2022-09-12T03:53:16.552Z,15.65
2022-09-12T03:55:43.946Z,15.82
2022-09-12T03:58:11.247Z,13.57
2022-09-12T04:00:39.608Z,13.80
2022-09-12T04:03:06.202Z,14.18
2022-09-12T04:05:33.124Z,14.02
2022-09-12T04:07:59.596Z,13.20
2022-09-12T04:10:26.151Z,13.95
2022-09-12T04:12:52.940Z,12.68
2022-09-12T04:15:19.406Z,15.50
2022-09-12T04:17:45.868Z,13.43
2022-09-12T04:20:12.676Z,15.93
2022-09-12T04:22:39.257Z,14.95
2022-09-12T04:25:06.279Z,16.52
2022-09-12T04:27:33.110Z,17.00
2022-09-12T04:30:01.164Z,14.57
2022-09-12T04:32:29.656Z,14.15
2022-09-12T04:34:56.601Z,13.68
2022-09-12T04:37:24.194Z,14.25
2022-09-12T04:39:51.780Z,13.93
2022-09-12T04:42:18.502Z,14.02
2022-09-12T04:44:44.979Z,16.02
2022-09-12T04:47:11.475Z,14.07
2022-09-12T04:49:38.170Z,14.23
2022-09-12T04:52:04.639Z,15.68
2022-09-12T04:54:31.205Z,15.27
2022-09-12T04:56:57.874Z,19.17
2022-09-12T04:59:24.392Z,17.65
2022-09-12T05:01:51.315Z,16.00
2022-09-12T05:04:18.639Z,15.38
2022-09-12T05:06:47.623Z,15.13
2022-09-12T05:09:14.723Z,17.20
2022-09-12T05:14:32.593Z,19.90
2022-09-12T05:17:01.652Z,19.13
2022-09-12T05:19:30.126Z,19.90
2022-09-12T05:21:56.852Z,20.02
2022-09-12T05:24:24.768Z,18.45
2022-09-12T05:26:51.634Z,18.77
2022-09-12T05:29:18.300Z,17.90
2022-09-12T05:31:45.245Z,19.85
2022-09-12T05:34:12.696Z,19.00
2022-09-12T05:36:39.179Z,21.00
2022-09-12T05:39:05.966Z,21.17
2022-09-12T05:41:33.810Z,18.00
2022-09-12T05:44:02.614Z,18.65
2022-09-12T05:46:37.734Z,18.10
2022-09-12T05:49:10.021Z,17.10
2022-09-12T05:51:39.398Z,18.60
2022-09-12T05:54:07.692Z,20.88
2022-09-12T05:56:39.396Z,23.58
2022-09-12T05:59:26.199Z,21.85
2022-09-12T06:01:54.089Z,24.05
2022-09-12T06:04:20.648Z,23.75
2022-09-12T06:06:47.241Z,23.58
2022-09-12T06:09:16.154Z,23.23
2022-09-12T06:11:43.249Z,22.85
2022-09-12T06:14:12.597Z,24.40
2022-09-12T06:16:39.432Z,23.75
2022-09-12T06:19:15.293Z,24.08
2022-09-12T06:21:42.082Z,22.73
2022-09-12T06:24:08.587Z,24.13
2022-09-12T06:26:35.478Z,23.33
2022-09-12T06:29:02.937Z,25.77
2022-09-12T06:31:35.031Z,24.95
2022-09-12T06:34:04.604Z,26.02
2022-09-12T06:36:37.998Z,26.42
2022-09-12T06:39:16.901Z,26.13
2022-09-12T06:41:44.661Z,24.23
2022-09-12T06:44:14.921Z,25.23
2022-09-12T06:46:41.829Z,27.92
2022-09-12T06:49:08.606Z,27.88
2022-09-12T06:51:36.259Z,28.90
2022-09-12T06:54:03.718Z,27.58
2022-09-12T06:56:30.215Z,29.05
2022-09-12T06:58:58.321Z,28.27
2022-09-12T07:01:27.740Z,28.42
2022-09-12T07:03:56.891Z,26.73
2022-09-12T07:06:26.083Z,27.98
2022-09-12T07:08:52.534Z,28.90
2022-09-12T07:11:21.898Z,27.17
2022-09-12T07:13:50.812Z,27.63
2022-09-12T07:16:19.943Z,28.95
2022-09-12T07:18:51.712Z,29.83
2022-09-12T07:21:18.144Z,29.80
2022-09-12T07:23:45.595Z,28.67
2022-09-12T07:26:13.412Z,27.17
2022-09-12T07:28:40.317Z,29.70
2022-09-12T07:31:10.864Z,29.23
2022-09-12T07:36:06.776Z,27.98
2022-09-12T07:38:33.382Z,28.27
2022-09-12T07:41:01.145Z,29.23
2022-09-12T07:43:27.985Z,28.67
2022-09-12T07:45:58.019Z,30.88
2022-09-12T07:48:24.752Z,28.85
2022-09-12T07:51:02.155Z,29.73
2022-09-12T07:53:32.983Z,28.35
2022-09-12T07:56:00.657Z,29.90
2022-09-12T07:58:27.468Z,27.23
2022-09-12T08:00:54.015Z,29.23
2022-09-12T08:03:20.518Z,28.63
2022-09-12T08:05:47.536Z,29.30
2022-09-12T08:08:14.032Z,28.90
2022-09-12T08:10:40.465Z,29.98
2022-09-12T08:13:10.125Z,27.80
2022-09-12T08:15:37.306Z,29.48
2022-09-12T08:18:03.826Z,27.63
2022-09-12T08:20:31.073Z,26.95
2022-09-12T08:22:57.688Z,27.63
2022-09-12T08:25:24.182Z,27.73
2022-09-12T08:27:50.794Z,28.20
2022-09-12T08:30:17.311Z,27.55
2022-09-12T08:32:44.414Z,26.17
2022-09-12T08:35:11.230Z,28.88
2022-09-12T08:37:37.891Z,28.52
2022-09-12T08:40:07.198Z,29.23
2022-09-12T08:42:54.405Z,25.90
2022-09-12T08:45:30.359Z,28.83
2022-09-12T08:47:57.533Z,28.35
2022-09-12T08:50:24.058Z,26.05
2022-09-12T08:52:58.888Z,26.42
2022-09-12T08:55:33.561Z,23.88
2022-09-12T08:58:02.681Z,26.05
2022-09-12T09:00:38.518Z,24.13
2022-09-12T09:03:15.333Z,25.15
2022-09-12T09:05:51.313Z,25.17
2022-09-12T09:08:17.769Z,24.25
2022-09-12T09:10:59.750Z,23.38
2022-09-12T09:13:54.016Z,25.75
2022-09-12T09:16:27.725Z,23.70
2022-09-12T09:18:57.245Z,26.02
2022-09-12T09:21:31.691Z,25.33
2022-09-12T09:24:05.963Z,24.58
2022-09-12T09:26:53.461Z,23.98
2022-09-12T09:29:26.960Z,24.48
2022-09-12T09:31:57.664Z,23.38
2022-09-12T09:34:31.593Z,24.15
2022-09-12T09:37:20.973Z,22.45
2022-09-12T09:40:28.923Z,23.80
2022-09-12T09:43:04.903Z,23.02
2022-09-12T09:45:31.893Z,21.83
2022-09-12T09:48:17.524Z,23.05
2022-09-12T09:50:46.143Z,20.92
2022-09-12T09:53:27.129Z,19.63
2022-09-12T09:55:56.787Z,18.42
2022-09-12T09:58:34.333Z,19.37
2022-09-12T10:01:06.432Z,21.02
2022-09-12T10:03:37.165Z,18.67
2022-09-12T10:06:22.569Z,17.67
2022-09-12T10:08:50.222Z,16.55
2022-09-12T10:11:16.745Z,17.20
2022-09-12T10:13:57.253Z,18.80
2022-09-12T10:18:58.751Z,16.45
2022-09-12T10:22:01.002Z,15.98
2022-09-12T10:24:35.075Z,16.65
2022-09-12T10:27:15.581Z,13.20
2022-09-12T10:32:17.023Z,13.68
2022-09-12T10:34:45.544Z,13.98
2022-09-12T10:37:40.186Z,15.63
2022-09-12T10:40:21.007Z,13.70
2022-09-12T10:42:53.201Z,12.95
2022-09-12T10:45:26.669Z,13.13
2022-09-12T10:47:55.572Z,11.90
2022-09-12T10:50:31.058Z,14.07
2022-09-12T10:53:14.856Z,12.18
2022-09-12T10:55:51.081Z,12.23
2022-09-12T10:59:05.267Z,10.43
2022-09-12T11:02:00.580Z,11.27
2022-09-12T11:04:30.277Z,9.77
2022-09-12T11:07:14.959Z,9.82
2022-09-12T11:10:04.550Z,9.55
2022-09-12T11:12:58.486Z,8.70
2022-09-12T11:15:43.265Z,8.15
2022-09-12T11:18:33.245Z,7.53
2022-09-12T11:21:14.820Z,8.40
2022-09-12T11:24:12.521Z,9.75
2022-09-12T11:27:14.647Z,8.07
2022-09-12T11:29:49.888Z,8.15
2022-09-12T11:32:19.534Z,7.95
2022-09-12T11:35:17.160Z,7.40
2022-09-12T11:38:21.445Z,7.28
2022-09-12T11:40:55.878Z,7.10
2022-09-12T11:43:38.669Z,5.85
2022-09-12T11:46:21.311Z,5.57
2022-09-12T11:49:09.360Z,7.00
2022-09-12T11:51:57.801Z,6.97
2022-09-12T11:54:44.894Z,7.30
2022-09-12T11:57:21.702Z,7.00
2022-09-12T11:59:59.295Z,6.43
2022-09-12T12:02:31.118Z,6.50
2022-09-12T12:05:20.500Z,6.82
2022-09-12T12:07:56.103Z,8.48
2022-09-12T12:10:51.568Z,7.95
2022-09-12T12:13:21.420Z,8.27
2022-09-12T12:15:55.149Z,6.47
2022-09-12T12:18:27.948Z,7.88
2022-09-12T12:20:56.709Z,6.65
2022-09-12T12:23:32.215Z,7.00
2022-09-12T12:26:04.617Z,7.57
2022-09-12T12:28:43.167Z,7.90
2022-09-12T12:31:10.756Z,6.38
2022-09-12T12:33:37.425Z,6.78
2022-09-12T12:36:28.441Z,7.15
2022-09-12T12:38:55.162Z,8.35
2022-09-12T12:41:21.691Z,7.72
2022-09-12T12:43:53.453Z,7.55
2022-09-12T12:46:26.692Z,6.07
2022-09-12T12:49:23.050Z,7.07
2022-09-12T12:52:01.565Z,6.95
2022-09-12T12:54:48.241Z,7.68
2022-09-12T12:57:25.134Z,6.75
2022-09-12T12:59:56.730Z,6.20
2022-09-12T13:02:31.808Z,5.68
2022-09-12T13:05:02.131Z,5.50
2022-09-12T13:09:59.463Z,4.85
2022-09-12T13:12:34.117Z,5.40
2022-09-12T13:15:03.426Z,5.00
2022-09-12T13:17:32.613Z,5.00
2022-09-12T13:20:28.298Z,4.90
2022-09-12T13:22:56.005Z,4.70
2022-09-12T13:25:27.987Z,5.05
2022-09-12T13:28:01.345Z,4.70
2022-09-12T13:30:31.591Z,5.15
2022-09-12T13:35:35.830Z,4.60
2022-09-12T13:38:16.692Z,5.05
2022-09-12T13:41:07.709Z,5.30
2022-09-12T13:43:41.518Z,5.05
2022-09-12T13:46:10.969Z,5.05
2022-09-12T13:48:39.733Z,4.93
2022-09-12T13:51:06.969Z,4.57
2022-09-12T13:53:44.623Z,4.40
2022-09-12T13:56:19.286Z,4.38
2022-09-12T13:59:13.390Z,5.03
2022-09-12T14:01:44.292Z,5.05
2022-09-12T14:04:37.956Z,4.60
2022-09-12T14:07:23.534Z,5.10
2022-09-12T14:09:58.822Z,4.35
2022-09-12T14:12:30.238Z,4.03
2022-09-12T14:14:57.352Z,4.38
2022-09-12T14:17:30.027Z,4.70
2022-09-12T14:20:04.536Z,4.20
2022-09-12T14:22:32.379Z,4.10
2022-09-12T14:24:59.565Z,4.38
2022-09-12T14:27:29.101Z,4.80
2022-09-12T14:30:23.872Z,4.20
2022-09-12T14:33:12.104Z,4.40
2022-09-12T14:35:43.662Z,4.28
2022-09-12T14:38:16.001Z,4.25
2022-09-12T14:41:05.768Z,4.25
2022-09-12T14:43:34.853Z,3.80
2022-09-12T14:46:04.013Z,4.65
2022-09-12T14:48:33.112Z,4.50
2022-09-12T14:50:59.919Z,5.20
2022-09-12T14:53:32.576Z,4.78
2022-09-12T14:56:13.289Z,4.65
2022-09-12T14:58:40.938Z,4.60
2022-09-12T15:01:07.829Z,7.40
2022-09-12T15:03:49.333Z,4.95
2022-09-12T15:06:38.072Z,4.57
2022-09-12T15:09:08.755Z,4.35
2022-09-12T15:11:35.474Z,4.05
2022-09-12T15:14:15.191Z,4.38
2022-09-12T15:16:42.592Z,4.72
2022-09-12T15:19:09.687Z,4.20
2022-09-12T15:21:36.236Z,4.40
2022-09-12T15:24:02.926Z,4.03
2022-09-12T15:26:31.585Z,4.20
2022-09-12T15:28:58.448Z,4.20
2022-09-12T15:31:32.186Z,3.97
2022-09-12T15:34:02.435Z,4.32
2022-09-12T15:38:56.696Z,4.40
2022-09-12T15:41:30.111Z,4.45
2022-09-12T15:43:56.782Z,3.88
2022-09-12T15:46:23.693Z,4.30
2022-09-12T15:48:50.471Z,4.82
2022-09-12T15:51:21.731Z,3.95
2022-09-12T15:53:50.216Z,4.22
2022-09-12T15:56:18.764Z,4.43
2022-09-12T15:58:57.747Z,4.20
2022-09-12T16:01:25.920Z,4.30
2022-09-12T16:03:52.465Z,4.97
2022-09-12T16:06:18.894Z,4.53
2022-09-12T16:08:45.621Z,4.03
2022-09-12T16:11:18.766Z,4.60
2022-09-12T16:13:45.368Z,4.60
2022-09-12T16:16:11.997Z,4.32
2022-09-12T16:18:41.954Z,4.07
2022-09-12T16:21:14.071Z,4.40
2022-09-12T16:23:45.804Z,3.72
2022-09-12T16:26:12.345Z,3.97
2022-09-12T16:28:38.969Z,4.10
2022-09-12T16:31:08.037Z,4.22
2022-09-12T16:33:38.192Z,3.83
2022-09-12T16:36:10.750Z,4.20
2022-09-12T16:38:49.491Z,4.07
2022-09-12T16:41:17.901Z,4.40
2022-09-12T16:43:45.498Z,3.80
2022-09-12T16:46:24.356Z,4.07
2022-09-12T16:48:53.931Z,3.65
2022-09-12T16:51:26.282Z,3.55
2022-09-12T16:53:56.050Z,3.55
2022-09-12T16:56:23.425Z,3.60
2022-09-12T16:58:50.765Z,3.70
2022-09-12T17:01:23.362Z,3.80
2022-09-12T17:04:01.604Z,3.72
2022-09-12T17:06:28.581Z,3.53
2022-09-12T17:08:58.362Z,3.50
2022-09-12T17:11:29.823Z,3.83
2022-09-12T17:14:04.958Z,3.20
2022-09-12T17:16:35.477Z,3.53
2022-09-12T17:19:02.392Z,3.58
2022-09-12T17:21:29.087Z,3.40
2022-09-12T17:23:55.926Z,3.53
2022-09-12T17:26:22.916Z,3.20
2022-09-12T17:28:49.832Z,3.53
2022-09-12T17:31:17.457Z,3.03
2022-09-12T17:33:44.409Z,3.15
2022-09-12T17:36:15.205Z,3.25
2022-09-12T17:38:43.702Z,3.75
2022-09-12T17:41:18.085Z,3.95
2022-09-12T17:43:47.507Z,4.30
2022-09-12T17:46:14.294Z,4.95
2022-09-12T17:48:45.086Z,4.60
2022-09-12T17:51:14.044Z,3.95
2022-09-12T17:53:41.564Z,4.25
2022-09-12T17:56:09.105Z,4.03
2022-09-12T17:58:36.476Z,4.00
2022-09-12T18:01:32.561Z,4.00
2022-09-12T18:04:00.801Z,3.70
2022-09-12T18:06:32.314Z,3.97
2022-09-12T18:09:08.152Z,3.50
2022-09-12T18:11:35.552Z,3.30
2022-09-12T18:14:02.657Z,3.80
2022-09-12T18:16:31.472Z,3.80
2022-09-12T18:19:04.441Z,3.78
2022-09-12T18:21:31.029Z,3.70
2022-09-12T18:24:01.749Z,3.80
2022-09-12T18:26:29.385Z,4.05
2022-09-12T18:28:56.866Z,3.60
2022-09-12T18:31:26.260Z,3.58
2022-09-12T18:33:53.028Z,3.80
2022-09-12T18:36:20.225Z,3.97
2022-09-12T18:38:48.128Z,4.03
2022-09-12T18:41:22.826Z,4.43
2022-09-12T18:43:57.665Z,3.97
2022-09-12T18:46:28.426Z,4.10
2022-09-12T18:48:57.933Z,3.92
2022-09-12T18:51:33.992Z,4.20
2022-09-12T18:54:03.389Z,4.18
2022-09-12T18:56:34.838Z,4.23
2022-09-12T18:59:02.702Z,3.90
2022-09-12T19:01:32.059Z,4.35
2022-09-12T19:04:00.892Z,4.67
2022-09-12T19:06:30.167Z,4.78
2022-09-12T19:08:57.707Z,4.63
2022-09-12T19:11:31.960Z,5.38
2022-09-12T19:13:59.186Z,5.72
2022-09-12T19:16:30.885Z,5.22
2022-09-12T19:18:58.540Z,6.07
2022-09-12T19:21:28.818Z,6.03
2022-09-12T19:26:33.546Z,6.00
2022-09-12T19:29:02.798Z,6.28
2022-09-12T19:31:30.685Z,6.28
2022-09-12T19:34:04.687Z,6.32
2022-09-12T19:36:47.771Z,6.40
2022-09-12T19:39:19.517Z,5.82
2022-09-12T19:41:46.451Z,6.47
2022-09-12T19:44:13.353Z,6.38
2022-09-12T19:46:40.385Z,6.50
2022-09-12T19:49:07.061Z,6.18
2022-09-12T19:51:33.581Z,6.13
2022-09-12T19:54:00.154Z,6.05
2022-09-12T19:56:26.966Z,6.50
2022-09-12T19:58:56.724Z,6.78
2022-09-12T20:01:29.600Z,6.93
2022-09-12T20:03:57.767Z,6.55
2022-09-12T20:06:24.898Z,6.55
2022-09-12T20:08:51.588Z,6.30
2022-09-12T20:11:20.010Z,6.55
2022-09-12T20:13:46.819Z,7.38
2022-09-12T20:16:21.072Z,7.57
2022-09-12T20:18:49.487Z,7.03
2022-09-12T20:21:20.150Z,7.00
2022-09-12T20:23:47.126Z,7.50
2022-09-12T20:26:14.001Z,7.88
2022-09-12T20:28:41.661Z,8.20
2022-09-12T20:31:13.878Z,7.97
2022-09-12T20:33:41.440Z,7.78
2022-09-12T20:36:10.788Z,7.55
2022-09-12T20:38:38.007Z,9.50
2022-09-12T20:41:06.618Z,9.27
2022-09-12T20:43:33.456Z,8.73
2022-09-12T20:45:59.941Z,8.00
2022-09-12T20:48:26.576Z,9.52
2022-09-12T20:50:53.060Z,10.68
2022-09-12T20:53:19.829Z,10.38
2022-09-12T20:55:51.526Z,8.70
2022-09-12T20:58:19.318Z,8.07
2022-09-12T21:00:46.564Z,9.50
2022-09-12T21:03:14.229Z,9.00
2022-09-12T21:05:42.749Z,10.07
2022-09-12T21:08:16.047Z,8.65
2022-09-12T21:10:44.172Z,7.70
2022-09-12T21:13:11.249Z,8.10
2022-09-12T21:15:38.864Z,10.23
2022-09-12T21:18:05.765Z,9.10
2022-09-12T21:20:32.926Z,9.93
2022-09-12T21:22:59.734Z,9.45
2022-09-12T21:25:26.490Z,9.25
2022-09-12T21:27:53.003Z,8.48
2022-09-12T21:30:19.749Z,8.80
2022-09-12T21:32:46.538Z,8.98
2022-09-12T21:35:13.665Z,7.82
2022-09-12T21:37:40.265Z,8.88
2022-09-12T21:40:07.801Z,10.13
2022-09-12T21:42:34.301Z,8.38
2022-09-12T21:45:00.829Z,8.98
2022-09-12T21:47:27.529Z,10.02
2022-09-12T21:49:55.447Z,9.90
2022-09-12T21:52:23.575Z,8.03
2022-09-12T21:54:50.177Z,8.18
2022-09-12T21:57:16.786Z,8.80
2022-09-12T21:59:43.392Z,8.32
2022-09-12T22:02:10.316Z,8.05
2022-09-12T22:04:36.842Z,7.93
2022-09-12T22:07:03.369Z,7.85
2022-09-12T22:09:30.358Z,8.55
2022-09-12T22:11:56.798Z,8.77
2022-09-12T22:14:23.635Z,8.38
2022-09-12T22:16:50.294Z,9.23
2022-09-12T22:19:16.824Z,8.32
2022-09-12T22:22:03.462Z,8.40
2022-09-12T22:24:30.289Z,8.02
2022-09-12T22:26:59.128Z,8.20
2022-09-12T22:29:26.998Z,8.48
2022-09-12T22:31:53.779Z,8.55
2022-09-12T22:34:20.318Z,9.10
2022-09-12T22:36:48.518Z,8.38
2022-09-12T22:39:15.055Z,8.50
2022-09-12T22:41:41.515Z,6.40
2022-09-12T22:44:08.942Z,6.90
2022-09-12T22:46:35.538Z,6.95
2022-09-12T22:49:02.011Z,7.00
2022-09-12T22:51:28.628Z,7.75
2022-09-12T22:53:56.497Z,7.18
2022-09-12T22:56:23.298Z,6.82
2022-09-12T22:58:50.091Z,7.55
2022-09-12T23:01:16.826Z,7.68
2022-09-12T23:03:43.720Z,6.97
2022-09-12T23:06:11.423Z,6.90
2022-09-12T23:08:39.573Z,7.07
2022-09-12T23:11:12.929Z,7.38
2022-09-12T23:13:42.400Z,7.75
2022-09-12T23:16:14.831Z,8.07
2022-09-12T23:18:41.302Z,8.00
2022-09-12T23:21:10.294Z,8.55
2022-09-12T23:23:37.309Z,7.68
2022-09-12T23:26:12.578Z,9.23
2022-09-12T23:28:41.148Z,8.75
2022-09-12T23:31:09.797Z,8.18
2022-09-12T23:33:36.419Z,8.95
2022-09-12T23:36:06.824Z,10.93
2022-09-12T23:41:01.603Z,9.57
2022-09-12T23:43:29.930Z,9.20
2022-09-12T23:45:57.055Z,10.95
2022-09-12T23:48:23.852Z,10.70
2022-09-12T23:50:50.459Z,10.50
2022-09-12T23:53:17.701Z,11.60
2022-09-12T23:55:45.056Z,9.80
2022-09-12T23:58:11.782Z,11.25
